メインページ
METAR-TAF:

METAR-TAF

空港 :

ラパス, ボリビア

エル・アルト国際空港

緯度: 16-31S, 経度: 068-11W, 海抜: 4058m

現時点の気象観測

当レポートは52分前の01:00(UTC)に作成
北東の風 5kt
気温 5°C
湿度 52%
気圧 1037 hPa
視程10km以上

METAR: SLLP 260100Z 04005KT 9999 NSC 05/M04 Q1037

時間: 21:52 (01:52 UTC)

予報

当レポートは3時間52分前の22:00(UTC)に作成
予報は26日の 00時(UTC)から 26日の 24時(UTC)まで有効
東/北東の風 5kt
視程10km以上
確率 30% :
26日の 06時(UTC)から 26日の 09時(UTC)まで一時的に
視程: 4000m
高度200ftの雲はほとんどない
近辺で霧
26日の 13時(UTC)から 26日の 15時(UTC)まで徐々に
北/北西の風 6kt
26日の 17時(UTC)から 26日の 21時(UTC)まで一時的に
西/北西の風 10kt、最大20ktの突風を伴う
高度2000ftの雲はほとんどない

TAF: SLLP 252200Z 2600/2624 07005KT 9999 NSC TX16/2620Z TNM06/2610Z PROB30 TEMPO 2606/2609 4000E VCFG FEW002 BECMG 2613/2615 34006KT NSC TEMPO 2617/2621 30010G20KT FEW020

4,000以上の空港の気象観測と天気予報(METAR報とTAF報)

利用可能な観測所は地図上に黄色い丸と赤い丸で示す。

丸の上にカーソルを重ねると観測所名を参照できる。

次にクリックすると気象観測と天気予報を参照できる。

マップの切り替え:黒色「×」印の緑ボタンをクリックして拡大、「-」印の緑ボタンをクリックして縮小、緑色の三角印をクリックして隣りの地図に切り替え


METAR-TAF: